Time;durP1;ratioP1;P1;durP2;ratioP2;P2;SDS_P1;SDS_P2;PMS_P1;PMS_P2;Temp;Humidity;BMP_temperature;BMP_pressure;BME280_temperature;BME280_humidity;BME280_pressure;Samples;Min_cycle;Max_cycle;Signal;HPM_P1;HPM_P2
2022/08/21 00:02:16;;;;;;;6.22;2.75;;;;;;;;;;5032367;28;20195;-64
2022/08/21 00:04:41;;;;;;;9.73;3.25;;;;;;;;;;5031498;28;20242;-64
2022/08/21 00:07:07;;;;;;;9.10;2.80;;;;;;;;;;5032230;28;20203;-64
2022/08/21 00:09:32;;;;;;;6.90;2.85;;;;;;;;;;5032433;28;20186;-64
2022/08/21 00:11:57;;;;;;;7.50;2.80;;;;;;;;;;5031597;28;20230;-64
2022/08/21 00:14:23;;;;;;;6.97;3.03;;;;;;;;;;5032424;28;20642;-64
2022/08/21 00:16:48;;;;;;;7.55;2.83;;;;;;;;;;5032372;28;20204;-64
2022/08/21 00:19:13;;;;;;;5.18;2.65;;;;;;;;;;5031485;28;20172;-64
2022/08/21 00:21:39;;;;;;;6.43;2.70;;;;;;;;;;5032410;28;20183;-64
2022/08/21 00:24:04;;;;;;;5.43;2.67;;;;;;;;;;5035308;28;20172;-64
2022/08/21 00:26:29;;;;;;;7.00;2.63;;;;;;;;;;5035074;28;20172;-64
2022/08/21 00:28:55;;;;;;;7.10;3.00;;;;;;;;;;5027671;28;20184;-64
2022/08/21 00:31:20;;;;;;;9.57;3.00;;;;;;;;;;5006214;28;20338;-64
2022/08/21 00:33:45;;;;;;;6.03;2.67;;;;;;;;;;5005263;28;20219;-64
2022/08/21 00:36:12;;;;;;;6.95;2.60;;;;;;;;;;5006171;28;20177;-64
2022/08/21 00:38:37;;;;;;;7.22;3.30;;;;;;;;;;5005131;28;20183;-64
2022/08/21 00:41:03;;;;;;;12.63;3.28;;;;;;;;;;5006010;28;20173;-64
2022/08/21 00:43:30;;;;;;;5.32;2.95;;;;;;;;;;5022951;28;20640;-64
2022/08/21 00:45:55;;;;;;;6.60;2.90;;;;;;;;;;5014589;28;20228;-64
2022/08/21 00:48:21;;;;;;;5.28;2.90;;;;;;;;;;4994290;28;20664;-64
2022/08/21 00:50:49;;;;;;;7.43;3.33;;;;;;;;;;4997290;28;20172;-64
2022/08/21 00:53:14;;;;;;;7.10;3.10;;;;;;;;;;5020195;28;21103;-64
2022/08/21 00:55:40;;;;;;;6.07;2.85;;;;;;;;;;5007278;28;20185;-64
2022/08/21 00:58:06;;;;;;;9.18;3.35;;;;;;;;;;5023445;28;20249;-64
2022/08/21 01:00:33;;;;;;;6.60;3.00;;;;;;;;;;5023476;28;20172;-64
2022/08/21 01:02:58;;;;;;;8.75;3.35;;;;;;;;;;5004978;28;20585;-64
2022/08/21 01:05:24;;;;;;;8.20;3.17;;;;;;;;;;5010104;28;20175;-64
2022/08/21 01:07:49;;;;;;;8.30;2.90;;;;;;;;;;5020230;28;20218;-64
2022/08/21 01:10:15;;;;;;;6.10;2.90;;;;;;;;;;5016503;28;20700;-64
2022/08/21 01:12:40;;;;;;;8.50;2.80;;;;;;;;;;5016990;28;20274;-64
2022/08/21 01:15:06;;;;;;;7.10;3.20;;;;;;;;;;5014666;28;20274;-64
2022/08/21 01:17:31;;;;;;;6.68;3.08;;;;;;;;;;5024118;28;20195;-64
2022/08/21 01:19:57;;;;;;;6.35;2.92;;;;;;;;;;5023363;28;20182;-64
2022/08/21 01:22:22;;;;;;;7.53;3.40;;;;;;;;;;5023907;28;20184;-64
2022/08/21 01:24:48;;;;;;;7.47;3.30;;;;;;;;;;5019398;28;20187;-64
2022/08/21 01:27:13;;;;;;;7.88;2.83;;;;;;;;;;5022760;28;20257;-64
2022/08/21 01:29:41;;;;;;;8.20;3.35;;;;;;;;;;5003925;28;20247;-64
2022/08/21 01:32:09;;;;;;;5.82;2.90;;;;;;;;;;5019274;28;20183;-64
2022/08/21 01:34:35;;;;;;;8.27;3.10;;;;;;;;;;5032694;28;20247;-64
2022/08/21 01:37:00;;;;;;;8.73;3.40;;;;;;;;;;5032165;28;20176;-64
2022/08/21 01:39:26;;;;;;;6.53;3.53;;;;;;;;;;5034623;28;20541;-64
2022/08/21 01:41:51;;;;;;;6.72;3.47;;;;;;;;;;5033576;28;20164;-64
2022/08/21 01:44:19;;;;;;;11.20;3.38;;;;;;;;;;5034319;28;20209;-64
2022/08/21 01:46:45;;;;;;;6.82;3.92;;;;;;;;;;5032399;28;20222;-64
2022/08/21 01:49:10;;;;;;;7.20;3.92;;;;;;;;;;5033537;28;20176;-64
2022/08/21 01:51:35;;;;;;;8.07;3.67;;;;;;;;;;5034173;28;20174;-64
2022/08/21 01:54:00;;;;;;;8.65;3.83;;;;;;;;;;5034234;28;20175;-64
2022/08/21 01:56:27;;;;;;;8.05;3.70;;;;;;;;;;5033387;28;20160;-64
2022/08/21 01:58:52;;;;;;;8.07;4.00;;;;;;;;;;5034179;28;20226;-64
2022/08/21 02:01:18;;;;;;;10.23;3.92;;;;;;;;;;5033588;28;20168;-64
2022/08/21 02:03:43;;;;;;;9.93;3.80;;;;;;;;;;5012710;28;20741;-64
2022/08/21 02:06:11;;;;;;;9.13;3.78;;;;;;;;;;4996738;28;20191;-64
2022/08/21 02:08:37;;;;;;;8.70;3.67;;;;;;;;;;5009465;28;20703;-64
2022/08/21 02:11:02;;;;;;;5.70;3.70;;;;;;;;;;5001747;28;20172;-64
2022/08/21 02:13:27;;;;;;;9.50;4.35;;;;;;;;;;5008561;28;20180;-64
2022/08/21 02:15:53;;;;;;;9.65;4.72;;;;;;;;;;5023010;28;20269;-64
2022/08/21 02:18:18;;;;;;;8.35;4.30;;;;;;;;;;5022709;28;20184;-64
2022/08/21 02:20:45;;;;;;;9.38;4.63;;;;;;;;;;5023226;28;20192;-64
2022/08/21 02:23:11;;;;;;;9.88;4.60;;;;;;;;;;5022663;28;20168;-64
2022/08/21 02:25:36;;;;;;;7.95;4.20;;;;;;;;;;5018685;28;20191;-64
2022/08/21 02:28:03;;;;;;;8.77;4.70;;;;;;;;;;5015365;28;20219;-64
2022/08/21 02:30:29;;;;;;;8.57;4.25;;;;;;;;;;5005781;28;20252;-64
2022/08/21 02:32:55;;;;;;;8.20;4.22;;;;;;;;;;4998735;28;20173;-64
2022/08/21 02:35:20;;;;;;;9.70;4.40;;;;;;;;;;5021700;28;20183;-64
2022/08/21 02:37:47;;;;;;;10.88;4.80;;;;;;;;;;5014141;28;20173;-64
2022/08/21 02:40:12;;;;;;;7.07;4.05;;;;;;;;;;5020403;28;20180;-64
2022/08/21 02:42:38;;;;;;;9.93;4.53;;;;;;;;;;5021833;28;20183;-64
2022/08/21 02:45:04;;;;;;;9.52;4.40;;;;;;;;;;5021828;28;20191;-64
2022/08/21 02:47:29;;;;;;;11.32;4.20;;;;;;;;;;5020279;28;20761;-64
2022/08/21 02:49:54;;;;;;;8.57;4.03;;;;;;;;;;5005951;28;20804;-64
2022/08/21 02:52:21;;;;;;;11.00;4.30;;;;;;;;;;4994815;28;20188;-64
2022/08/21 02:54:46;;;;;;;7.95;4.10;;;;;;;;;;4996341;28;20179;-64
2022/08/21 02:57:12;;;;;;;9.30;4.20;;;;;;;;;;5003174;28;20192;-63
2022/08/21 02:59:37;;;;;;;7.30;4.20;;;;;;;;;;5011861;28;20195;-64
2022/08/21 03:02:02;;;;;;;8.30;4.30;;;;;;;;;;5010810;28;20203;-64
2022/08/21 03:04:28;;;;;;;8.27;4.38;;;;;;;;;;5003120;28;20493;-64
2022/08/21 03:06:53;;;;;;;8.40;4.32;;;;;;;;;;5002768;28;20240;-64
2022/08/21 03:09:18;;;;;;;8.38;4.30;;;;;;;;;;5003737;28;20184;-64
2022/08/21 03:11:44;;;;;;;9.02;4.20;;;;;;;;;;5011888;28;20337;-64
2022/08/21 03:14:09;;;;;;;9.77;4.40;;;;;;;;;;4994889;28;20694;-64
2022/08/21 03:16:34;;;;;;;8.63;4.60;;;;;;;;;;4994953;28;20181;-64
2022/08/21 03:19:00;;;;;;;8.07;4.30;;;;;;;;;;5035391;28;20175;-64
2022/08/21 03:21:25;;;;;;;7.85;4.25;;;;;;;;;;5022098;28;20184;-64
2022/08/21 03:23:51;;;;;;;8.13;4.20;;;;;;;;;;5022872;28;20183;-64
2022/08/21 03:26:17;;;;;;;10.05;4.40;;;;;;;;;;5022465;28;20631;-64
2022/08/21 03:28:42;;;;;;;8.35;4.57;;;;;;;;;;5021966;28;20265;-64
2022/08/21 03:31:08;;;;;;;9.00;4.60;;;;;;;;;;5007705;28;20168;-64
2022/08/21 03:33:33;;;;;;;8.85;4.43;;;;;;;;;;4999402;28;20189;-64
2022/08/21 03:36:00;;;;;;;6.32;4.18;;;;;;;;;;4994880;28;20234;-64
2022/08/21 03:38:26;;;;;;;10.32;4.35;;;;;;;;;;5012031;28;20268;-64
2022/08/21 03:40:51;;;;;;;10.50;4.70;;;;;;;;;;5017773;28;20679;-64
2022/08/21 03:43:16;;;;;;;9.82;4.75;;;;;;;;;;5021942;28;20187;-64
2022/08/21 03:45:42;;;;;;;9.88;4.72;;;;;;;;;;5007159;28;20648;-64
2022/08/21 03:48:07;;;;;;;10.35;5.03;;;;;;;;;;5019815;28;20281;-64
2022/08/21 03:50:33;;;;;;;9.18;5.13;;;;;;;;;;5010070;28;20185;-64
2022/08/21 03:52:59;;;;;;;8.98;4.80;;;;;;;;;;5021432;28;20188;-64
2022/08/21 03:55:24;;;;;;;9.75;4.65;;;;;;;;;;5015362;28;20168;-64
2022/08/21 03:57:49;;;;;;;11.75;5.00;;;;;;;;;;5017682;28;20222;-64
2022/08/21 04:00:15;;;;;;;9.07;4.95;;;;;;;;;;5000018;28;20223;-63
2022/08/21 04:02:40;;;;;;;10.30;5.18;;;;;;;;;;4998751;28;20180;-64
2022/08/21 04:05:06;;;;;;;10.15;5.47;;;;;;;;;;5006538;28;20201;-64
2022/08/21 04:07:31;;;;;;;9.65;5.80;;;;;;;;;;5013144;28;20758;-64
2022/08/21 04:09:56;;;;;;;10.13;5.20;;;;;;;;;;5025202;28;20543;-64
2022/08/21 04:12:22;;;;;;;9.00;5.40;;;;;;;;;;5025771;28;20548;-64
2022/08/21 04:14:47;;;;;;;10.57;5.68;;;;;;;;;;5026163;28;20542;-64
2022/08/21 04:17:12;;;;;;;9.55;5.47;;;;;;;;;;5024660;28;20631;-64
2022/08/21 04:19:38;;;;;;;10.02;5.63;;;;;;;;;;5019785;28;20214;-64
2022/08/21 04:22:03;;;;;;;10.93;5.75;;;;;;;;;;5017504;28;20389;-64
2022/08/21 04:24:29;;;;;;;11.73;5.82;;;;;;;;;;5012809;28;20260;-64
2022/08/21 04:26:54;;;;;;;11.02;6.10;;;;;;;;;;5013274;28;20195;-64
2022/08/21 04:29:20;;;;;;;8.73;6.00;;;;;;;;;;5025324;28;20234;-64
2022/08/21 04:31:45;;;;;;;13.18;6.95;;;;;;;;;;5005734;28;20628;-64
2022/08/21 04:34:10;;;;;;;9.98;6.18;;;;;;;;;;5004777;28;20173;-64
2022/08/21 04:36:35;;;;;;;11.27;6.13;;;;;;;;;;5005842;28;20184;-64
2022/08/21 04:39:01;;;;;;;11.30;6.25;;;;;;;;;;5006120;28;20191;-64
2022/08/21 04:41:27;;;;;;;9.02;6.38;;;;;;;;;;5002664;28;20710;-64
2022/08/21 04:43:53;;;;;;;11.80;6.47;;;;;;;;;;5004901;28;20575;-63
2022/08/21 04:46:19;;;;;;;11.35;6.15;;;;;;;;;;5006562;28;20248;-63
2022/08/21 04:48:45;;;;;;;9.82;6.25;;;;;;;;;;5032342;28;20203;-63
2022/08/21 04:51:13;;;;;;;11.43;6.97;;;;;;;;;;5034973;28;20503;-66
2022/08/21 04:53:39;;;;;;;10.18;5.90;;;;;;;;;;5034520;28;20172;-63
2022/08/21 04:56:08;;;;;;;9.30;6.40;;;;;;;;;;5034526;28;20752;-66
2022/08/21 04:58:33;;;;;;;9.20;5.88;;;;;;;;;;5032749;28;20433;-67
2022/08/21 05:00:58;;;;;;;7.85;5.55;;;;;;;;;;5032711;28;20199;-64
2022/08/21 05:03:24;;;;;;;9.65;5.60;;;;;;;;;;5033382;28;20678;-65
2022/08/21 05:05:49;;;;;;;10.10;5.53;;;;;;;;;;5033678;28;20195;-64
2022/08/21 05:08:15;;;;;;;8.10;5.20;;;;;;;;;;5033362;28;20567;-64
2022/08/21 05:10:42;;;;;;;8.38;4.72;;;;;;;;;;5033201;28;20512;-64
2022/08/21 05:13:08;;;;;;;8.80;4.95;;;;;;;;;;5033632;28;20271;-63
2022/08/21 05:15:33;;;;;;;9.52;4.93;;;;;;;;;;5034127;28;20601;-63
2022/08/21 05:17:59;;;;;;;10.88;5.20;;;;;;;;;;5030925;28;20179;-65
2022/08/21 05:20:24;;;;;;;9.88;5.50;;;;;;;;;;5031539;28;20160;-64
2022/08/21 05:22:49;;;;;;;8.45;4.50;;;;;;;;;;5033730;28;20164;-64
2022/08/21 05:25:15;;;;;;;9.88;4.63;;;;;;;;;;5034313;28;20168;-64
2022/08/21 05:27:40;;;;;;;6.60;4.13;;;;;;;;;;5033131;28;20203;-64
2022/08/21 05:30:07;;;;;;;7.97;4.30;;;;;;;;;;5049203;28;20539;-63
2022/08/21 05:32:32;;;;;;;9.63;4.32;;;;;;;;;;5032677;28;20612;-65
2022/08/21 05:34:58;;;;;;;7.60;4.18;;;;;;;;;;5031972;28;20412;-63
2022/08/21 05:37:23;;;;;;;7.07;3.15;;;;;;;;;;5033738;28;20176;-63
2022/08/21 05:39:48;;;;;;;6.93;3.58;;;;;;;;;;5034066;28;20172;-63
2022/08/21 05:42:13;;;;;;;7.63;3.70;;;;;;;;;;5033059;28;20172;-62
2022/08/21 05:44:39;;;;;;;6.35;3.67;;;;;;;;;;5033752;28;20180;-63
2022/08/21 05:47:05;;;;;;;8.35;3.95;;;;;;;;;;5032650;28;20547;-64
2022/08/21 05:49:30;;;;;;;8.43;4.30;;;;;;;;;;5029843;28;20186;-64
2022/08/21 05:51:56;;;;;;;7.70;3.97;;;;;;;;;;5033094;28;20168;-65
2022/08/21 05:54:21;;;;;;;8.25;4.05;;;;;;;;;;5033832;28;20656;-64
2022/08/21 05:56:46;;;;;;;7.55;4.13;;;;;;;;;;5033067;28;20173;-64
2022/08/21 05:59:12;;;;;;;8.23;4.43;;;;;;;;;;5033738;28;20168;-64
2022/08/21 06:01:38;;;;;;;9.80;4.88;;;;;;;;;;5033956;28;20168;-65
2022/08/21 06:04:04;;;;;;;7.82;4.72;;;;;;;;;;5032785;28;20164;-64
2022/08/21 06:06:29;;;;;;;11.15;4.88;;;;;;;;;;5033835;28;20175;-65
2022/08/21 06:08:55;;;;;;;8.18;4.50;;;;;;;;;;5033771;28;20286;-65
2022/08/21 06:11:20;;;;;;;9.05;4.30;;;;;;;;;;5033038;28;20259;-65
2022/08/21 06:13:45;;;;;;;7.65;4.35;;;;;;;;;;5033529;28;20253;-66
2022/08/21 06:16:12;;;;;;;8.45;4.75;;;;;;;;;;5032952;28;20254;-65
2022/08/21 06:18:38;;;;;;;9.20;4.70;;;;;;;;;;5031039;28;20179;-66
2022/08/21 06:21:03;;;;;;;7.75;4.60;;;;;;;;;;5031384;28;20160;-65
2022/08/21 06:23:28;;;;;;;9.05;5.07;;;;;;;;;;5032635;28;20275;-65
2022/08/21 06:25:54;;;;;;;11.50;5.57;;;;;;;;;;5033591;28;20168;-65
2022/08/21 06:28:19;;;;;;;8.88;5.38;;;;;;;;;;5033046;28;20682;-65
2022/08/21 06:30:44;;;;;;;9.13;6.00;;;;;;;;;;5032565;28;20180;-66
2022/08/21 06:33:10;;;;;;;10.02;5.70;;;;;;;;;;5033199;28;20230;-65
2022/08/21 06:35:35;;;;;;;11.00;6.20;;;;;;;;;;5033338;28;20164;-65
2022/08/21 06:38:00;;;;;;;11.70;5.60;;;;;;;;;;5032438;28;20168;-66
2022/08/21 06:40:26;;;;;;;9.93;5.57;;;;;;;;;;5033270;28;20167;-65
2022/08/21 06:42:51;;;;;;;10.45;5.63;;;;;;;;;;5033129;28;20183;-68
2022/08/21 06:45:17;;;;;;;8.48;5.40;;;;;;;;;;5032219;28;20265;-68
2022/08/21 06:47:43;;;;;;;11.13;6.10;;;;;;;;;;5032088;28;20236;-68
2022/08/21 06:50:09;;;;;;;9.70;5.63;;;;;;;;;;5030966;28;20552;-66
2022/08/21 06:52:35;;;;;;;11.25;6.53;;;;;;;;;;5030448;28;20500;-67
2022/08/21 06:55:00;;;;;;;9.27;5.93;;;;;;;;;;5029618;28;20363;-65
2022/08/21 06:57:25;;;;;;;14.10;5.45;;;;;;;;;;5032340;28;20259;-65
2022/08/21 06:59:50;;;;;;;13.93;5.55;;;;;;;;;;5032054;28;20199;-64
2022/08/21 07:02:16;;;;;;;11.27;5.47;;;;;;;;;;5032433;28;20200;-63
2022/08/21 07:04:41;;;;;;;14.43;5.95;;;;;;;;;;5032990;28;20171;-64
2022/08/21 07:07:06;;;;;;;10.85;5.40;;;;;;;;;;5031688;28;20651;-64
2022/08/21 07:09:32;;;;;;;10.30;4.97;;;;;;;;;;5032789;28;20168;-63
2022/08/21 07:11:58;;;;;;;12.70;6.20;;;;;;;;;;5032409;28;20164;-63
2022/08/21 07:14:24;;;;;;;13.45;5.90;;;;;;;;;;5030643;28;20562;-63
2022/08/21 07:16:50;;;;;;;12.68;6.10;;;;;;;;;;5032711;28;20172;-64
2022/08/21 07:19:15;;;;;;;14.65;5.47;;;;;;;;;;5030587;28;20171;-65
2022/08/21 07:21:41;;;;;;;11.38;5.75;;;;;;;;;;5030308;28;20168;-64
2022/08/21 07:24:06;;;;;;;13.32;5.47;;;;;;;;;;5032443;28;20167;-64
2022/08/21 07:26:31;;;;;;;15.82;6.05;;;;;;;;;;5031736;28;20259;-63
2022/08/21 07:28:57;;;;;;;9.10;4.90;;;;;;;;;;5000248;28;20232;-61
2022/08/21 07:31:22;;;;;;;13.20;5.43;;;;;;;;;;5033595;28;20284;-62
2022/08/21 07:33:48;;;;;;;9.85;5.30;;;;;;;;;;5035580;28;20491;-62
2022/08/21 07:36:13;;;;;;;13.30;5.38;;;;;;;;;;5036367;28;20171;-62
2022/08/21 07:38:39;;;;;;;13.75;5.80;;;;;;;;;;5035658;28;20431;-64
2022/08/21 07:41:06;;;;;;;13.05;4.93;;;;;;;;;;5035318;28;20230;-63
2022/08/21 07:43:32;;;;;;;10.85;5.15;;;;;;;;;;5035092;28;20624;-65
2022/08/21 07:45:57;;;;;;;13.80;4.63;;;;;;;;;;5035973;28;20254;-63
2022/08/21 07:48:22;;;;;;;8.93;4.72;;;;;;;;;;5015215;28;20239;-63
2022/08/21 07:50:48;;;;;;;11.10;4.75;;;;;;;;;;5028550;28;20188;-63
2022/08/21 07:53:14;;;;;;;10.20;5.03;;;;;;;;;;5034929;28;20199;-63
2022/08/21 07:55:39;;;;;;;11.23;4.50;;;;;;;;;;5033985;28;20206;-62
2022/08/21 07:58:04;;;;;;;10.80;4.63;;;;;;;;;;5035629;28;20175;-62
2022/08/21 08:00:30;;;;;;;13.95;5.45;;;;;;;;;;5036441;28;20679;-63
2022/08/21 08:02:56;;;;;;;9.85;4.63;;;;;;;;;;5035172;28;20176;-64
2022/08/21 08:05:22;;;;;;;14.57;5.50;;;;;;;;;;5036017;28;20172;-64
2022/08/21 08:07:47;;;;;;;12.27;4.97;;;;;;;;;;5035744;28;20222;-64
2022/08/21 08:10:13;;;;;;;13.85;5.00;;;;;;;;;;5035037;28;20525;-63
2022/08/21 08:12:39;;;;;;;12.40;5.30;;;;;;;;;;5035862;28;20536;-64
2022/08/21 08:15:04;;;;;;;13.20;5.25;;;;;;;;;;5036199;28;20655;-64
2022/08/21 08:17:31;;;;;;;12.32;5.38;;;;;;;;;;5034548;28;20523;-63
2022/08/21 08:19:57;;;;;;;12.20;4.63;;;;;;;;;;5033604;28;20222;-63
2022/08/21 08:22:23;;;;;;;16.35;6.32;;;;;;;;;;5033850;28;20183;-63
2022/08/21 08:24:49;;;;;;;14.82;5.47;;;;;;;;;;5034090;28;20671;-63
2022/08/21 08:27:14;;;;;;;12.52;5.85;;;;;;;;;;5034797;28;20284;-63
2022/08/21 08:29:40;;;;;;;14.63;5.60;;;;;;;;;;5036224;28;20168;-63
2022/08/21 08:32:07;;;;;;;13.70;5.30;;;;;;;;;;5035416;28;20207;-63
2022/08/21 08:34:32;;;;;;;13.43;5.45;;;;;;;;;;5035993;28;20168;-63
2022/08/21 08:36:58;;;;;;;16.48;5.75;;;;;;;;;;5035201;28;20187;-63
2022/08/21 08:39:23;;;;;;;13.80;5.70;;;;;;;;;;5035420;28;20205;-63
2022/08/21 08:41:51;;;;;;;11.05;5.63;;;;;;;;;;5035820;28;20176;-63
2022/08/21 08:44:16;;;;;;;17.38;5.68;;;;;;;;;;5034001;28;20164;-63
2022/08/21 08:46:43;;;;;;;14.25;5.78;;;;;;;;;;5034427;28;20695;-63
2022/08/21 08:49:11;;;;;;;14.45;5.68;;;;;;;;;;5032508;28;20286;-63
2022/08/21 08:51:41;;;;;;;11.88;4.78;;;;;;;;;;5032470;28;20632;-63
2022/08/21 08:54:08;;;;;;;14.68;4.57;;;;;;;;;;5035156;28;20589;-63
2022/08/21 08:56:34;;;;;;;15.98;5.15;;;;;;;;;;5035559;28;20247;-63
2022/08/21 08:59:01;;;;;;;14.48;6.45;;;;;;;;;;5034941;28;20255;-63
2022/08/21 09:01:26;;;;;;;14.32;5.60;;;;;;;;;;5035581;28;20176;-63
2022/08/21 09:03:52;;;;;;;15.23;5.82;;;;;;;;;;5035576;28;20164;-63
2022/08/21 09:06:28;;;;;;;14.13;4.97;;;;;;;;;;5034685;28;20179;-63
2022/08/21 09:09:01;;;;;;;13.35;4.28;;;;;;;;;;5033685;28;20261;-63
2022/08/21 09:11:29;;;;;;;10.32;4.25;;;;;;;;;;5034139;28;20175;-63
2022/08/21 09:14:02;;;;;;;15.00;5.18;;;;;;;;;;5033408;28;20172;-63
2022/08/21 09:16:47;;;;;;;13.63;4.43;;;;;;;;;;5034200;28;20218;-63
2022/08/21 09:19:19;;;;;;;15.23;5.20;;;;;;;;;;5031128;28;20160;-63
2022/08/21 09:21:48;;;;;;;12.65;4.00;;;;;;;;;;5034210;28;20176;-63
2022/08/21 09:24:19;;;;;;;10.48;3.42;;;;;;;;;;5033674;28;20179;-63
2022/08/21 09:27:02;;;;;;;12.52;3.38;;;;;;;;;;5034432;28;20180;-63
2022/08/21 09:29:29;;;;;;;12.27;3.63;;;;;;;;;;5035068;28;20270;-63
2022/08/21 09:31:55;;;;;;;13.13;4.13;;;;;;;;;;5034850;28;20176;-63
2022/08/21 09:34:25;;;;;;;12.95;4.10;;;;;;;;;;5034304;28;20179;-63
2022/08/21 09:36:50;;;;;;;27.45;4.38;;;;;;;;;;5033597;28;20164;-63
2022/08/21 09:39:24;;;;;;;11.32;3.80;;;;;;;;;;5034485;28;20172;-63
2022/08/21 09:41:57;;;;;;;11.00;3.85;;;;;;;;;;5034084;28;20203;-63
2022/08/21 09:44:24;;;;;;;10.73;3.20;;;;;;;;;;5034653;28;20164;-63
2022/08/21 09:46:50;;;;;;;13.88;4.43;;;;;;;;;;5034514;28;20295;-63
2022/08/21 09:49:25;;;;;;;12.93;3.60;;;;;;;;;;5031773;28;20180;-63
2022/08/21 09:51:51;;;;;;;12.32;3.50;;;;;;;;;;5033497;28;20167;-63
2022/08/21 09:54:17;;;;;;;11.45;2.90;;;;;;;;;;5032988;28;20160;-63
2022/08/21 09:59:38;;;;;;;9.35;2.70;;;;;;;;;;5034754;28;20551;-63
2022/08/21 10:02:21;;;;;;;10.18;2.78;;;;;;;;;;5033551;28;20620;-63
2022/08/21 10:04:54;;;;;;;11.00;2.88;;;;;;;;;;5034275;28;20172;-63
2022/08/21 10:07:21;;;;;;;13.00;2.80;;;;;;;;;;5032575;28;20204;-63
2022/08/21 10:09:46;;;;;;;12.40;2.70;;;;;;;;;;5033513;28;20174;-63
2022/08/21 10:12:15;;;;;;;11.77;3.30;;;;;;;;;;5032824;28;20262;-63
2022/08/21 10:14:44;;;;;;;10.13;2.38;;;;;;;;;;5034371;28;20164;-63
2022/08/21 10:17:19;;;;;;;8.70;2.22;;;;;;;;;;5031524;28;20176;-63
2022/08/21 10:19:57;;;;;;;10.63;2.30;;;;;;;;;;5032009;28;20645;-63
2022/08/21 10:22:26;;;;;;;9.23;2.75;;;;;;;;;;5032603;28;20168;-63
2022/08/21 10:25:09;;;;;;;8.85;2.35;;;;;;;;;;5034367;28;20167;-63
2022/08/21 10:27:35;;;;;;;8.38;1.90;;;;;;;;;;5033667;28;20283;-63
2022/08/21 10:30:03;;;;;;;8.85;2.03;;;;;;;;;;5033265;28;20247;-63
2022/08/21 10:32:29;;;;;;;8.82;2.22;;;;;;;;;;5032710;28;20211;-62
2022/08/21 10:34:55;;;;;;;9.75;2.60;;;;;;;;;;5034037;28;20163;-63
2022/08/21 10:37:25;;;;;;;9.57;1.90;;;;;;;;;;5033094;28;20168;-63
2022/08/21 10:40:10;;;;;;;8.32;2.05;;;;;;;;;;5033859;28;20705;-63
2022/08/21 10:43:08;;;;;;;10.15;2.72;;;;;;;;;;5033369;28;20168;-62
2022/08/21 10:45:42;;;;;;;7.95;2.28;;;;;;;;;;5031528;28;20694;-63
2022/08/21 10:48:08;;;;;;;10.48;2.17;;;;;;;;;;5032137;28;20230;-63
2022/08/21 10:50:38;;;;;;;5.55;1.48;;;;;;;;;;5032798;28;20631;-63
2022/08/21 10:53:03;;;;;;;5.68;1.65;;;;;;;;;;5032977;28;20172;-63
2022/08/21 10:55:33;;;;;;;8.15;1.70;;;;;;;;;;5033537;28;20175;-63
2022/08/21 10:58:01;;;;;;;7.32;1.67;;;;;;;;;;5030984;28;20172;-63
2022/08/21 11:00:28;;;;;;;5.80;1.38;;;;;;;;;;5032146;28;20171;-63
2022/08/21 11:02:55;;;;;;;8.18;1.92;;;;;;;;;;5031049;28;20179;-63
2022/08/21 11:05:24;;;;;;;9.50;1.90;;;;;;;;;;5031038;28;20175;-63
2022/08/21 11:07:54;;;;;;;8.35;2.35;;;;;;;;;;5031276;28;20219;-63
2022/08/21 11:10:23;;;;;;;10.30;2.35;;;;;;;;;;5031942;28;20523;-63
2022/08/21 11:12:51;;;;;;;7.13;1.70;;;;;;;;;;5032202;28;20180;-63
2022/08/21 11:15:26;;;;;;;6.78;1.75;;;;;;;;;;5031900;28;20251;-63
2022/08/21 11:17:55;;;;;;;6.90;1.70;;;;;;;;;;5032390;28;20167;-62
2022/08/21 11:20:23;;;;;;;8.68;1.70;;;;;;;;;;5030239;28;20175;-62
2022/08/21 11:22:51;;;;;;;5.35;1.40;;;;;;;;;;5030613;28;20213;-62
2022/08/21 11:25:21;;;;;;;5.97;1.75;;;;;;;;;;5031756;28;20183;-62
2022/08/21 11:27:49;;;;;;;7.53;1.83;;;;;;;;;;5031467;28;20566;-62
2022/08/21 11:30:14;;;;;;;7.00;1.50;;;;;;;;;;5031930;28;20176;-62
2022/08/21 11:32:46;;;;;;;7.53;1.60;;;;;;;;;;5028508;28;20183;-62
2022/08/21 11:35:30;;;;;;;6.47;1.50;;;;;;;;;;5022004;28;20226;-62
2022/08/21 11:37:57;;;;;;;7.45;1.75;;;;;;;;;;5026536;28;20176;-63
2022/08/21 11:40:34;;;;;;;6.82;1.73;;;;;;;;;;5017009;28;20238;-64
2022/08/21 11:43:03;;;;;;;8.43;1.73;;;;;;;;;;5025939;28;20176;-61
2022/08/21 11:45:31;;;;;;;6.65;1.40;;;;;;;;;;5026038;28;20223;-61
2022/08/21 11:48:07;;;;;;;9.18;1.90;;;;;;;;;;5025011;28;20223;-62
2022/08/21 11:50:33;;;;;;;6.97;1.40;;;;;;;;;;5024526;28;20275;-62
2022/08/21 11:53:03;;;;;;;4.40;1.38;;;;;;;;;;5025552;28;20291;-62
2022/08/21 11:55:34;;;;;;;5.90;1.58;;;;;;;;;;5023691;28;20552;-62
2022/08/21 11:58:01;;;;;;;7.07;1.88;;;;;;;;;;5025053;28;20702;-62
2022/08/21 12:00:29;;;;;;;5.15;1.33;;;;;;;;;;5025161;28;20172;-61
2022/08/21 12:02:56;;;;;;;6.45;1.48;;;;;;;;;;5024659;28;20215;-62
2022/08/21 12:05:23;;;;;;;8.05;1.38;;;;;;;;;;5026413;28;20642;-61
2022/08/21 12:07:58;;;;;;;7.95;1.58;;;;;;;;;;5024233;28;20214;-62
2022/08/21 12:10:30;;;;;;;5.28;1.30;;;;;;;;;;5026162;28;20192;-62
2022/08/21 12:12:55;;;;;;;5.18;1.38;;;;;;;;;;5025787;28;20199;-62
2022/08/21 12:15:20;;;;;;;5.75;1.42;;;;;;;;;;5024440;28;20223;-62
2022/08/21 12:17:58;;;;;;;5.93;1.50;;;;;;;;;;5027232;28;20264;-62
2022/08/21 12:20:34;;;;;;;5.15;1.20;;;;;;;;;;5030099;28;20184;-62
2022/08/21 12:23:15;;;;;;;6.50;1.30;;;;;;;;;;5028780;28;20180;-63
2022/08/21 12:25:43;;;;;;;6.35;1.45;;;;;;;;;;5029932;28;20180;-62
2022/08/21 12:28:09;;;;;;;5.47;1.50;;;;;;;;;;5028342;28;20258;-61
2022/08/21 12:30:36;;;;;;;6.50;1.63;;;;;;;;;;5028112;28;20187;-62
2022/08/21 12:33:02;;;;;;;7.30;1.70;;;;;;;;;;5027990;28;20266;-62
2022/08/21 12:35:42;;;;;;;5.63;1.45;;;;;;;;;;5030183;28;20180;-63
2022/08/21 12:38:12;;;;;;;6.10;1.70;;;;;;;;;;5027035;28;20417;-62
2022/08/21 12:40:42;;;;;;;4.88;1.42;;;;;;;;;;5028235;28;20549;-64
2022/08/21 12:43:11;;;;;;;5.32;1.33;;;;;;;;;;5028394;28;20192;-62
2022/08/21 12:45:40;;;;;;;3.83;1.42;;;;;;;;;;5028459;28;20230;-61
2022/08/21 12:48:08;;;;;;;5.93;1.45;;;;;;;;;;5027186;28;20761;-61
2022/08/21 12:50:41;;;;;;;6.43;1.50;;;;;;;;;;5027808;28;20207;-62
2022/08/21 12:53:09;;;;;;;6.85;1.60;;;;;;;;;;5028093;28;20421;-62
2022/08/21 12:55:34;;;;;;;5.18;1.20;;;;;;;;;;5027866;28;20613;-62
2022/08/21 12:57:59;;;;;;;7.55;1.65;;;;;;;;;;5028843;28;20262;-61
2022/08/21 13:00:26;;;;;;;6.15;1.33;;;;;;;;;;5027489;28;20168;-61
2022/08/21 13:02:52;;;;;;;6.55;1.63;;;;;;;;;;5029744;28;20184;-62
2022/08/21 13:05:32;;;;;;;6.38;1.75;;;;;;;;;;5026856;28;20176;-62
2022/08/21 13:07:58;;;;;;;6.47;1.67;;;;;;;;;;5029111;28;20195;-63
2022/08/21 13:10:24;;;;;;;8.73;1.60;;;;;;;;;;5027337;28;20183;-63
2022/08/21 13:12:50;;;;;;;8.35;1.70;;;;;;;;;;5028613;28;20215;-63
2022/08/21 13:15:21;;;;;;;6.03;1.50;;;;;;;;;;5028925;28;20230;-62
2022/08/21 13:17:47;;;;;;;4.93;1.55;;;;;;;;;;5027961;28;20618;-62
2022/08/21 13:20:20;;;;;;;7.35;1.52;;;;;;;;;;5027218;28;20176;-63
2022/08/21 13:22:46;;;;;;;7.40;1.77;;;;;;;;;;5028273;28;20258;-63
2022/08/21 13:25:12;;;;;;;7.15;1.70;;;;;;;;;;5027080;28;20358;-62
2022/08/21 13:27:37;;;;;;;6.97;1.70;;;;;;;;;;5027205;28;20685;-63
2022/08/21 13:30:11;;;;;;;6.55;1.85;;;;;;;;;;5028489;28;20180;-63
2022/08/21 13:32:38;;;;;;;6.97;1.80;;;;;;;;;;5027734;28;20611;-62
2022/08/21 13:35:11;;;;;;;7.72;1.67;;;;;;;;;;5029125;28;20303;-63
2022/08/21 13:37:38;;;;;;;6.63;1.38;;;;;;;;;;5024290;28;20175;-63
2022/08/21 13:40:06;;;;;;;5.82;1.48;;;;;;;;;;5027517;28;20494;-63
2022/08/21 13:42:33;;;;;;;7.15;1.50;;;;;;;;;;5027762;28;20192;-62
2022/08/21 13:44:58;;;;;;;7.45;1.70;;;;;;;;;;5027675;28;20172;-63
2022/08/21 13:47:23;;;;;;;7.20;1.65;;;;;;;;;;5027177;28;20718;-63
2022/08/21 13:49:49;;;;;;;4.45;1.13;;;;;;;;;;5026247;28;20215;-63
2022/08/21 13:52:16;;;;;;;5.38;1.10;;;;;;;;;;5026712;28;20623;-62
2022/08/21 13:54:43;;;;;;;4.80;1.05;;;;;;;;;;5027169;28;20180;-62
2022/08/21 13:57:15;;;;;;;6.28;1.38;;;;;;;;;;5028225;28;20176;-62
2022/08/21 13:59:41;;;;;;;4.70;1.02;;;;;;;;;;5027993;28;20191;-63
2022/08/21 14:02:09;;;;;;;4.95;1.00;;;;;;;;;;5027689;28;20548;-63
2022/08/21 14:04:36;;;;;;;5.85;1.63;;;;;;;;;;5026001;28;20200;-62
2022/08/21 14:07:01;;;;;;;4.75;1.00;;;;;;;;;;5026326;28;20190;-63
2022/08/21 14:09:30;;;;;;;6.55;1.40;;;;;;;;;;5027000;28;20179;-62
2022/08/21 14:11:55;;;;;;;4.93;1.23;;;;;;;;;;5026946;28;20174;-62
2022/08/21 14:14:39;;;;;;;5.45;1.40;;;;;;;;;;5027432;28;20180;-61
2022/08/21 14:17:06;;;;;;;6.63;1.30;;;;;;;;;;5025744;28;20237;-63
2022/08/21 14:19:37;;;;;;;5.72;1.70;;;;;;;;;;5027359;28;20683;-62
2022/08/21 14:22:20;;;;;;;4.70;1.20;;;;;;;;;;5026061;28;20234;-62
2022/08/21 14:24:46;;;;;;;4.47;1.10;;;;;;;;;;5026445;28;20183;-62
2022/08/21 14:27:11;;;;;;;4.07;1.38;;;;;;;;;;5026934;28;20179;-63
2022/08/21 14:29:37;;;;;;;3.63;1.30;;;;;;;;;;5026650;28;20172;-63
2022/08/21 14:32:08;;;;;;;5.30;1.38;;;;;;;;;;5027124;28;20217;-62
2022/08/21 14:34:34;;;;;;;5.60;1.20;;;;;;;;;;5024376;28;20180;-62
2022/08/21 14:36:59;;;;;;;4.35;1.27;;;;;;;;;;5026825;28;20175;-62
2022/08/21 14:39:24;;;;;;;4.43;1.17;;;;;;;;;;5025686;28;20258;-63
2022/08/21 14:41:50;;;;;;;5.78;1.33;;;;;;;;;;5025591;28;20190;-62